sensor_id;sensor_type;location;lat;lon;timestamp;P1;durP1;ratioP1;P2;durP2;ratioP2
75586;SDS011;64164;50.156;14.570;2022-11-20T08:38:03;29.73;;;11.63;;
75586;SDS011;64164;50.156;14.570;2022-11-20T08:40:29;31.10;;;13.07;;
75586;SDS011;64164;50.156;14.570;2022-11-20T08:42:54;27.70;;;12.17;;
75586;SDS011;64164;50.156;14.570;2022-11-20T08:45:19;24.57;;;13.30;;
75586;SDS011;64164;50.156;14.570;2022-11-20T08:47:45;27.98;;;12.82;;
75586;SDS011;64164;50.156;14.570;2022-11-20T08:50:11;30.95;;;14.10;;
75586;SDS011;64164;50.156;14.570;2022-11-20T08:52:37;30.88;;;13.23;;
75586;SDS011;64164;50.156;14.570;2022-11-20T08:55:03;26.43;;;12.83;;
75586;SDS011;64164;50.156;14.570;2022-11-20T08:57:30;30.48;;;13.30;;
75586;SDS011;64164;50.156;14.570;2022-11-20T08:59:55;34.72;;;13.50;;
75586;SDS011;64164;50.156;14.570;2022-11-20T09:02:21;28.97;;;12.03;;
75586;SDS011;64164;50.156;14.570;2022-11-20T09:04:46;28.40;;;13.27;;
75586;SDS011;64164;50.156;14.570;2022-11-20T09:07:11;31.33;;;13.07;;
75586;SDS011;64164;50.156;14.570;2022-11-20T09:09:36;35.20;;;14.23;;
75586;SDS011;64164;50.156;14.570;2022-11-20T09:12:01;28.67;;;11.80;;
75586;SDS011;64164;50.156;14.570;2022-11-20T09:14:26;31.23;;;12.27;;
75586;SDS011;64164;50.156;14.570;2022-11-20T09:16:54;26.02;;;11.32;;
75586;SDS011;64164;50.156;14.570;2022-11-20T09:19:19;26.40;;;12.23;;
75586;SDS011;64164;50.156;14.570;2022-11-20T09:21:44;25.53;;;12.00;;
75586;SDS011;64164;50.156;14.570;2022-11-20T09:24:10;27.43;;;11.43;;
75586;SDS011;64164;50.156;14.570;2022-11-20T09:26:35;25.70;;;11.30;;
75586;SDS011;64164;50.156;14.570;2022-11-20T09:29:00;22.90;;;11.00;;
75586;SDS011;64164;50.156;14.570;2022-11-20T09:31:25;33.03;;;14.00;;
75586;SDS011;64164;50.156;14.570;2022-11-20T09:33:51;30.67;;;14.80;;
75586;SDS011;64164;50.156;14.570;2022-11-20T09:36:16;26.77;;;12.00;;
75586;SDS011;64164;50.156;14.570;2022-11-20T09:38:43;29.15;;;14.25;;
75586;SDS011;64164;50.156;14.570;2022-11-20T09:46:44;28.70;;;14.73;;
75586;SDS011;64164;50.156;14.570;2022-11-20T09:51:46;29.00;;;13.37;;
75586;SDS011;64164;50.156;14.570;2022-11-20T09:54:22;27.45;;;14.10;;
75586;SDS011;64164;50.156;14.570;2022-11-20T09:56:50;30.27;;;13.13;;
75586;SDS011;64164;50.156;14.570;2022-11-20T09:59:21;29.75;;;12.18;;
75586;SDS011;64164;50.156;14.570;2022-11-20T10:01:48;28.08;;;13.20;;
75586;SDS011;64164;50.156;14.570;2022-11-20T10:04:18;28.40;;;12.60;;
75586;SDS011;64164;50.156;14.570;2022-11-20T10:06:47;28.90;;;13.80;;
75586;SDS011;64164;50.156;14.570;2022-11-20T10:09:20;25.90;;;12.85;;
75586;SDS011;64164;50.156;14.570;2022-11-20T10:14:26;31.95;;;15.10;;
75586;SDS011;64164;50.156;14.570;2022-11-20T10:17:02;39.65;;;19.13;;
75586;SDS011;64164;50.156;14.570;2022-11-20T10:22:04;20.23;;;10.35;;
75586;SDS011;64164;50.156;14.570;2022-11-20T10:29:46;30.85;;;15.20;;
75586;SDS011;64164;50.156;14.570;2022-11-20T10:32:19;28.73;;;14.65;;
75586;SDS011;64164;50.156;14.570;2022-11-20T10:37:22;24.50;;;11.80;;
75586;SDS011;64164;50.156;14.570;2022-11-20T10:42:17;28.00;;;14.35;;
75586;SDS011;64164;50.156;14.570;2022-11-20T10:44:51;29.23;;;12.85;;
75586;SDS011;64164;50.156;14.570;2022-11-20T10:47:26;26.17;;;13.20;;
75586;SDS011;64164;50.156;14.570;2022-11-20T10:49:52;28.05;;;12.50;;
75586;SDS011;64164;50.156;14.570;2022-11-20T11:00:05;25.20;;;13.25;;
75586;SDS011;64164;50.156;14.570;2022-11-20T11:02:32;30.77;;;14.25;;
75586;SDS011;64164;50.156;14.570;2022-11-20T11:07:24;23.02;;;10.27;;
75586;SDS011;64164;50.156;14.570;2022-11-20T11:09:52;23.75;;;9.95;;
75586;SDS011;64164;50.156;14.570;2022-11-20T11:12:18;24.45;;;11.10;;
75586;SDS011;64164;50.156;14.570;2022-11-20T11:17:18;30.37;;;12.83;;
75586;SDS011;64164;50.156;14.570;2022-11-20T11:19:44;31.27;;;13.35;;
75586;SDS011;64164;50.156;14.570;2022-11-20T11:22:10;37.77;;;16.93;;
75586;SDS011;64164;50.156;14.570;2022-11-20T11:24:43;38.45;;;16.55;;
75586;SDS011;64164;50.156;14.570;2022-11-20T11:27:15;34.13;;;14.65;;
75586;SDS011;64164;50.156;14.570;2022-11-20T11:29:42;35.30;;;16.00;;
75586;SDS011;64164;50.156;14.570;2022-11-20T11:32:14;35.63;;;15.55;;
75586;SDS011;64164;50.156;14.570;2022-11-20T11:34:40;33.13;;;14.90;;
75586;SDS011;64164;50.156;14.570;2022-11-20T11:37:10;30.13;;;13.40;;
75586;SDS011;64164;50.156;14.570;2022-11-20T11:39:35;38.20;;;15.35;;
75586;SDS011;64164;50.156;14.570;2022-11-20T11:42:02;36.17;;;16.20;;
75586;SDS011;64164;50.156;14.570;2022-11-20T11:44:28;30.43;;;13.00;;
75586;SDS011;64164;50.156;14.570;2022-11-20T11:47:26;33.97;;;16.98;;
75586;SDS011;64164;50.156;14.570;2022-11-20T11:52:40;32.70;;;14.65;;
75586;SDS011;64164;50.156;14.570;2022-11-20T11:55:07;31.80;;;14.75;;
75586;SDS011;64164;50.156;14.570;2022-11-20T12:00:14;30.92;;;15.52;;
75586;SDS011;64164;50.156;14.570;2022-11-20T12:05:27;36.95;;;14.93;;
75586;SDS011;64164;50.156;14.570;2022-11-20T12:10:20;32.33;;;15.27;;
75586;SDS011;64164;50.156;14.570;2022-11-20T12:12:48;35.28;;;15.25;;
75586;SDS011;64164;50.156;14.570;2022-11-20T12:15:16;30.15;;;14.05;;
75586;SDS011;64164;50.156;14.570;2022-11-20T12:17:47;38.25;;;15.27;;
75586;SDS011;64164;50.156;14.570;2022-11-20T12:20:13;31.53;;;16.00;;
75586;SDS011;64164;50.156;14.570;2022-11-20T12:28:12;30.15;;;14.95;;
75586;SDS011;64164;50.156;14.570;2022-11-20T12:30:26;34.15;;;17.33;;
75586;SDS011;64164;50.156;14.570;2022-11-20T12:32:58;41.30;;;16.10;;
75586;SDS011;64164;50.156;14.570;2022-11-20T12:46:33;31.98;;;14.82;;
75586;SDS011;64164;50.156;14.570;2022-11-20T12:49:08;33.55;;;15.80;;
75586;SDS011;64164;50.156;14.570;2022-11-20T12:51:40;28.70;;;13.35;;
75586;SDS011;64164;50.156;14.570;2022-11-20T12:56:47;39.63;;;14.80;;
75586;SDS011;64164;50.156;14.570;2022-11-20T13:01:50;33.72;;;14.70;;
75586;SDS011;64164;50.156;14.570;2022-11-20T13:07:05;40.92;;;17.10;;
75586;SDS011;64164;50.156;14.570;2022-11-20T13:09:31;35.28;;;15.68;;
75586;SDS011;64164;50.156;14.570;2022-11-20T13:16:54;44.35;;;19.73;;
75586;SDS011;64164;50.156;14.570;2022-11-20T13:19:22;37.40;;;19.00;;
75586;SDS011;64164;50.156;14.570;2022-11-20T13:21:48;37.20;;;16.15;;
75586;SDS011;64164;50.156;14.570;2022-11-20T13:24:22;37.30;;;16.67;;
75586;SDS011;64164;50.156;14.570;2022-11-20T13:27:33;38.22;;;19.38;;
75586;SDS011;64164;50.156;14.570;2022-11-20T13:29:34;35.75;;;14.93;;
75586;SDS011;64164;50.156;14.570;2022-11-20T13:32:06;37.70;;;17.35;;
75586;SDS011;64164;50.156;14.570;2022-11-20T13:34:37;32.00;;;15.85;;
75586;SDS011;64164;50.156;14.570;2022-11-20T13:37:02;32.00;;;14.47;;
75586;SDS011;64164;50.156;14.570;2022-11-20T13:39:32;39.97;;;18.33;;
75586;SDS011;64164;50.156;14.570;2022-11-20T13:42:21;36.47;;;18.30;;
75586;SDS011;64164;50.156;14.570;2022-11-20T13:44:47;38.10;;;17.13;;
75586;SDS011;64164;50.156;14.570;2022-11-20T13:47:31;29.52;;;13.43;;
75586;SDS011;64164;50.156;14.570;2022-11-20T13:49:57;38.00;;;16.35;;
75586;SDS011;64164;50.156;14.570;2022-11-20T13:55:07;35.63;;;15.35;;
75586;SDS011;64164;50.156;14.570;2022-11-20T13:57:57;32.90;;;13.32;;
75586;SDS011;64164;50.156;14.570;2022-11-20T14:00:25;28.25;;;14.40;;
75586;SDS011;64164;50.156;14.570;2022-11-20T14:08:26;32.35;;;12.50;;
75586;SDS011;64164;50.156;14.570;2022-11-20T14:11:02;32.05;;;15.68;;
75586;SDS011;64164;50.156;14.570;2022-11-20T14:13:27;34.60;;;15.00;;
75586;SDS011;64164;50.156;14.570;2022-11-20T14:15:56;35.47;;;16.93;;
75586;SDS011;64164;50.156;14.570;2022-11-20T14:18:21;33.58;;;15.85;;
75586;SDS011;64164;50.156;14.570;2022-11-20T14:20:47;35.30;;;14.87;;
75586;SDS011;64164;50.156;14.570;2022-11-20T14:23:12;36.10;;;15.83;;
75586;SDS011;64164;50.156;14.570;2022-11-20T14:25:41;30.17;;;12.80;;
75586;SDS011;64164;50.156;14.570;2022-11-20T14:28:10;26.60;;;13.65;;
75586;SDS011;64164;50.156;14.570;2022-11-20T14:30:42;31.63;;;14.52;;
75586;SDS011;64164;50.156;14.570;2022-11-20T14:33:12;34.90;;;16.02;;
75586;SDS011;64164;50.156;14.570;2022-11-20T14:35:40;36.65;;;15.70;;
75586;SDS011;64164;50.156;14.570;2022-11-20T14:38:09;38.90;;;15.52;;
75586;SDS011;64164;50.156;14.570;2022-11-20T14:43:02;24.33;;;12.65;;
75586;SDS011;64164;50.156;14.570;2022-11-20T14:45:31;29.73;;;12.68;;
75586;SDS011;64164;50.156;14.570;2022-11-20T14:47:57;31.37;;;15.00;;
75586;SDS011;64164;50.156;14.570;2022-11-20T14:50:23;34.05;;;15.25;;
75586;SDS011;64164;50.156;14.570;2022-11-20T14:52:52;34.58;;;16.20;;
75586;SDS011;64164;50.156;14.570;2022-11-20T14:55:32;33.75;;;13.45;;
75586;SDS011;64164;50.156;14.570;2022-11-20T14:57:59;27.65;;;15.32;;
75586;SDS011;64164;50.156;14.570;2022-11-20T15:00:24;33.25;;;15.57;;
75586;SDS011;64164;50.156;14.570;2022-11-20T15:02:50;35.83;;;13.82;;
75586;SDS011;64164;50.156;14.570;2022-11-20T15:05:16;33.47;;;16.00;;
75586;SDS011;64164;50.156;14.570;2022-11-20T15:07:43;33.15;;;15.30;;
75586;SDS011;64164;50.156;14.570;2022-11-20T15:12:40;38.95;;;16.85;;
75586;SDS011;64164;50.156;14.570;2022-11-20T15:15:10;34.35;;;17.67;;
75586;SDS011;64164;50.156;14.570;2022-11-20T15:17:37;39.00;;;17.50;;
75586;SDS011;64164;50.156;14.570;2022-11-20T15:20:03;36.78;;;15.50;;
75586;SDS011;64164;50.156;14.570;2022-11-20T15:22:30;33.40;;;15.52;;
75586;SDS011;64164;50.156;14.570;2022-11-20T15:24:55;32.97;;;15.07;;
75586;SDS011;64164;50.156;14.570;2022-11-20T15:27:21;31.37;;;15.20;;
75586;SDS011;64164;50.156;14.570;2022-11-20T15:29:46;37.00;;;16.90;;
75586;SDS011;64164;50.156;14.570;2022-11-20T15:32:11;38.17;;;17.80;;
75586;SDS011;64164;50.156;14.570;2022-11-20T15:34:36;37.83;;;16.80;;
75586;SDS011;64164;50.156;14.570;2022-11-20T15:37:01;41.13;;;17.70;;
75586;SDS011;64164;50.156;14.570;2022-11-20T15:39:26;35.13;;;14.90;;
75586;SDS011;64164;50.156;14.570;2022-11-20T15:41:52;40.50;;;16.70;;
75586;SDS011;64164;50.156;14.570;2022-11-20T15:44:17;40.77;;;15.67;;
75586;SDS011;64164;50.156;14.570;2022-11-20T15:46:42;32.63;;;16.20;;
75586;SDS011;64164;50.156;14.570;2022-11-20T15:49:10;34.17;;;15.50;;
75586;SDS011;64164;50.156;14.570;2022-11-20T15:51:37;38.03;;;15.95;;
75586;SDS011;64164;50.156;14.570;2022-11-20T15:54:10;34.45;;;15.73;;
75586;SDS011;64164;50.156;14.570;2022-11-20T15:56:36;32.63;;;16.25;;
75586;SDS011;64164;50.156;14.570;2022-11-20T15:59:02;36.53;;;16.25;;
75586;SDS011;64164;50.156;14.570;2022-11-20T16:01:27;35.40;;;15.50;;
75586;SDS011;64164;50.156;14.570;2022-11-20T16:03:52;33.53;;;15.03;;
75586;SDS011;64164;50.156;14.570;2022-11-20T16:06:17;40.03;;;17.13;;
75586;SDS011;64164;50.156;14.570;2022-11-20T16:08:43;37.97;;;15.85;;
75586;SDS011;64164;50.156;14.570;2022-11-20T16:11:10;40.53;;;17.05;;
75586;SDS011;64164;50.156;14.570;2022-11-20T16:13:36;36.13;;;15.95;;
75586;SDS011;64164;50.156;14.570;2022-11-20T16:16:21;31.98;;;15.30;;
75586;SDS011;64164;50.156;14.570;2022-11-20T16:18:47;33.80;;;16.85;;
75586;SDS011;64164;50.156;14.570;2022-11-20T16:21:12;35.53;;;16.90;;
75586;SDS011;64164;50.156;14.570;2022-11-20T16:23:40;39.67;;;18.13;;
75586;SDS011;64164;50.156;14.570;2022-11-20T16:26:09;38.50;;;15.07;;
75586;SDS011;64164;50.156;14.570;2022-11-20T16:28:35;37.35;;;18.08;;
75586;SDS011;64164;50.156;14.570;2022-11-20T16:31:07;35.93;;;17.70;;
75586;SDS011;64164;50.156;14.570;2022-11-20T16:33:32;34.63;;;16.08;;
75586;SDS011;64164;50.156;14.570;2022-11-20T16:35:57;37.50;;;15.33;;
75586;SDS011;64164;50.156;14.570;2022-11-20T16:38:23;40.33;;;16.63;;
75586;SDS011;64164;50.156;14.570;2022-11-20T16:40:48;40.20;;;17.63;;
75586;SDS011;64164;50.156;14.570;2022-11-20T16:43:13;37.27;;;16.57;;
75586;SDS011;64164;50.156;14.570;2022-11-20T16:45:42;41.63;;;19.23;;
75586;SDS011;64164;50.156;14.570;2022-11-20T16:48:10;34.85;;;16.23;;
75586;SDS011;64164;50.156;14.570;2022-11-20T16:50:36;40.75;;;18.90;;
75586;SDS011;64164;50.156;14.570;2022-11-20T16:53:01;38.93;;;16.27;;
75586;SDS011;64164;50.156;14.570;2022-11-20T16:55:26;35.07;;;16.23;;
75586;SDS011;64164;50.156;14.570;2022-11-20T16:57:51;37.80;;;17.40;;
75586;SDS011;64164;50.156;14.570;2022-11-20T17:00:16;38.00;;;16.60;;
75586;SDS011;64164;50.156;14.570;2022-11-20T17:02:42;31.93;;;15.13;;
75586;SDS011;64164;50.156;14.570;2022-11-20T17:05:07;37.57;;;16.27;;
75586;SDS011;64164;50.156;14.570;2022-11-20T17:07:32;39.57;;;19.23;;
75586;SDS011;64164;50.156;14.570;2022-11-20T17:09:57;35.67;;;16.23;;
75586;SDS011;64164;50.156;14.570;2022-11-20T17:12:22;37.03;;;18.13;;
75586;SDS011;64164;50.156;14.570;2022-11-20T17:14:48;47.00;;;21.77;;
75586;SDS011;64164;50.156;14.570;2022-11-20T17:17:13;48.00;;;23.40;;
75586;SDS011;64164;50.156;14.570;2022-11-20T17:19:38;41.50;;;21.40;;
75586;SDS011;64164;50.156;14.570;2022-11-20T17:22:03;45.47;;;22.27;;
75586;SDS011;64164;50.156;14.570;2022-11-20T17:24:28;53.73;;;22.73;;
75586;SDS011;64164;50.156;14.570;2022-11-20T17:26:54;59.30;;;26.13;;
75586;SDS011;64164;50.156;14.570;2022-11-20T17:29:19;48.47;;;23.37;;
75586;SDS011;64164;50.156;14.570;2022-11-20T17:31:48;46.83;;;21.13;;
75586;SDS011;64164;50.156;14.570;2022-11-20T17:34:14;46.38;;;22.25;;
75586;SDS011;64164;50.156;14.570;2022-11-20T17:36:39;57.10;;;24.90;;
75586;SDS011;64164;50.156;14.570;2022-11-20T17:39:08;49.83;;;25.05;;
75586;SDS011;64164;50.156;14.570;2022-11-20T17:41:33;41.90;;;18.03;;
75586;SDS011;64164;50.156;14.570;2022-11-20T17:43:59;43.97;;;21.23;;
75586;SDS011;64164;50.156;14.570;2022-11-20T17:46:26;53.85;;;24.13;;
75586;SDS011;64164;50.156;14.570;2022-11-20T17:48:51;52.40;;;22.75;;
75586;SDS011;64164;50.156;14.570;2022-11-20T17:53:43;52.40;;;21.80;;
75586;SDS011;64164;50.156;14.570;2022-11-20T17:56:08;50.13;;;24.05;;
75586;SDS011;64164;50.156;14.570;2022-11-20T17:58:52;48.30;;;21.45;;
75586;SDS011;64164;50.156;14.570;2022-11-20T18:01:17;44.70;;;21.27;;
75586;SDS011;64164;50.156;14.570;2022-11-20T18:03:42;43.95;;;17.95;;
75586;SDS011;64164;50.156;14.570;2022-11-20T18:06:09;35.70;;;16.60;;
75586;SDS011;64164;50.156;14.570;2022-11-20T18:08:34;44.42;;;20.58;;
75586;SDS011;64164;50.156;14.570;2022-11-20T18:10:59;61.28;;;23.90;;
75586;SDS011;64164;50.156;14.570;2022-11-20T18:13:32;45.15;;;20.00;;
75586;SDS011;64164;50.156;14.570;2022-11-20T18:16:17;44.03;;;21.80;;
75586;SDS011;64164;50.156;14.570;2022-11-20T18:18:43;48.93;;;22.70;;
75586;SDS011;64164;50.156;14.570;2022-11-20T18:21:08;51.07;;;22.13;;
75586;SDS011;64164;50.156;14.570;2022-11-20T18:23:33;58.87;;;23.33;;
75586;SDS011;64164;50.156;14.570;2022-11-20T18:25:59;51.30;;;22.73;;
75586;SDS011;64164;50.156;14.570;2022-11-20T18:28:24;49.80;;;24.88;;
75586;SDS011;64164;50.156;14.570;2022-11-20T18:30:49;45.17;;;21.10;;
75586;SDS011;64164;50.156;14.570;2022-11-20T18:33:14;43.97;;;21.47;;
75586;SDS011;64164;50.156;14.570;2022-11-20T18:35:41;44.67;;;20.30;;
75586;SDS011;64164;50.156;14.570;2022-11-20T18:38:07;46.30;;;21.42;;
75586;SDS011;64164;50.156;14.570;2022-11-20T18:40:33;45.27;;;22.77;;
75586;SDS011;64164;50.156;14.570;2022-11-20T18:42:58;50.42;;;22.70;;
75586;SDS011;64164;50.156;14.570;2022-11-20T18:45:42;47.10;;;21.75;;
75586;SDS011;64164;50.156;14.570;2022-11-20T18:48:07;36.10;;;17.70;;
75586;SDS011;64164;50.156;14.570;2022-11-20T18:50:33;42.30;;;19.00;;
75586;SDS011;64164;50.156;14.570;2022-11-20T18:52:58;46.00;;;21.23;;
75586;SDS011;64164;50.156;14.570;2022-11-20T18:55:23;34.60;;;14.87;;
75586;SDS011;64164;50.156;14.570;2022-11-20T18:57:49;36.78;;;17.25;;
75586;SDS011;64164;50.156;14.570;2022-11-20T19:00:15;32.67;;;15.27;;
75586;SDS011;64164;50.156;14.570;2022-11-20T19:02:40;35.45;;;16.05;;
75586;SDS011;64164;50.156;14.570;2022-11-20T19:05:05;29.53;;;13.07;;
75586;SDS011;64164;50.156;14.570;2022-11-20T19:07:31;31.17;;;13.55;;
75586;SDS011;64164;50.156;14.570;2022-11-20T19:09:56;28.63;;;15.00;;
75586;SDS011;64164;50.156;14.570;2022-11-20T19:12:21;28.17;;;13.17;;
75586;SDS011;64164;50.156;14.570;2022-11-20T19:14:46;29.97;;;14.83;;
75586;SDS011;64164;50.156;14.570;2022-11-20T19:17:12;29.17;;;12.10;;
75586;SDS011;64164;50.156;14.570;2022-11-20T19:19:38;36.72;;;14.63;;
75586;SDS011;64164;50.156;14.570;2022-11-20T19:22:03;32.93;;;13.80;;
75586;SDS011;64164;50.156;14.570;2022-11-20T19:24:29;37.97;;;14.98;;
75586;SDS011;64164;50.156;14.570;2022-11-20T19:26:54;31.63;;;14.63;;
75586;SDS011;64164;50.156;14.570;2022-11-20T19:29:20;34.40;;;14.80;;
75586;SDS011;64164;50.156;14.570;2022-11-20T19:31:45;23.35;;;12.90;;
75586;SDS011;64164;50.156;14.570;2022-11-20T19:34:11;34.70;;;14.37;;
75586;SDS011;64164;50.156;14.570;2022-11-20T19:36:36;30.23;;;12.30;;
75586;SDS011;64164;50.156;14.570;2022-11-20T19:39:02;47.50;;;17.63;;
75586;SDS011;64164;50.156;14.570;2022-11-20T19:44:05;28.65;;;11.93;;
75586;SDS011;64164;50.156;14.570;2022-11-20T19:46:32;36.30;;;14.35;;
75586;SDS011;64164;50.156;14.570;2022-11-20T19:48:58;40.53;;;16.40;;
75586;SDS011;64164;50.156;14.570;2022-11-20T19:51:25;33.55;;;17.60;;
75586;SDS011;64164;50.156;14.570;2022-11-20T19:53:50;48.55;;;17.25;;
75586;SDS011;64164;50.156;14.570;2022-11-20T19:56:15;42.78;;;17.70;;
75586;SDS011;64164;50.156;14.570;2022-11-20T19:58:41;38.53;;;16.65;;
75586;SDS011;64164;50.156;14.570;2022-11-20T20:01:13;46.58;;;17.35;;
75586;SDS011;64164;50.156;14.570;2022-11-20T20:03:40;50.30;;;21.23;;
75586;SDS011;64164;50.156;14.570;2022-11-20T20:06:07;34.45;;;16.52;;
75586;SDS011;64164;50.156;14.570;2022-11-20T20:08:34;50.08;;;18.00;;
75586;SDS011;64164;50.156;14.570;2022-11-20T20:10:59;37.05;;;15.10;;
75586;SDS011;64164;50.156;14.570;2022-11-20T20:13:25;33.57;;;16.03;;
75586;SDS011;64164;50.156;14.570;2022-11-20T20:15:50;41.35;;;17.15;;
75586;SDS011;64164;50.156;14.570;2022-11-20T20:18:15;51.95;;;18.60;;
75586;SDS011;64164;50.156;14.570;2022-11-20T20:20:41;52.63;;;20.83;;
75586;SDS011;64164;50.156;14.570;2022-11-20T20:23:06;49.50;;;21.77;;
75586;SDS011;64164;50.156;14.570;2022-11-20T20:25:32;51.83;;;22.88;;
75586;SDS011;64164;50.156;14.570;2022-11-20T20:27:57;55.92;;;25.70;;
75586;SDS011;64164;50.156;14.570;2022-11-20T20:30:22;48.23;;;24.07;;
75586;SDS011;64164;50.156;14.570;2022-11-20T20:32:47;45.20;;;21.77;;
75586;SDS011;64164;50.156;14.570;2022-11-20T20:35:13;55.53;;;24.63;;
75586;SDS011;64164;50.156;14.570;2022-11-20T20:37:38;54.80;;;22.57;;
75586;SDS011;64164;50.156;14.570;2022-11-20T20:40:03;53.78;;;20.70;;
75586;SDS011;64164;50.156;14.570;2022-11-20T20:42:29;49.40;;;20.80;;
75586;SDS011;64164;50.156;14.570;2022-11-20T20:44:55;40.13;;;18.20;;
75586;SDS011;64164;50.156;14.570;2022-11-20T20:47:32;36.95;;;17.88;;
75586;SDS011;64164;50.156;14.570;2022-11-20T20:49:58;46.58;;;17.05;;
75586;SDS011;64164;50.156;14.570;2022-11-20T20:52:23;31.63;;;15.33;;
75586;SDS011;64164;50.156;14.570;2022-11-20T20:54:51;35.65;;;17.15;;
75586;SDS011;64164;50.156;14.570;2022-11-20T20:57:16;35.33;;;16.13;;
75586;SDS011;64164;50.156;14.570;2022-11-20T20:59:41;33.30;;;16.70;;
75586;SDS011;64164;50.156;14.570;2022-11-20T21:02:07;39.03;;;15.83;;
75586;SDS011;64164;50.156;14.570;2022-11-20T21:04:32;39.53;;;17.60;;
75586;SDS011;64164;50.156;14.570;2022-11-20T21:06:58;44.47;;;19.03;;
75586;SDS011;64164;50.156;14.570;2022-11-20T21:09:23;42.60;;;21.30;;
75586;SDS011;64164;50.156;14.570;2022-11-20T21:11:48;55.13;;;23.97;;
75586;SDS011;64164;50.156;14.570;2022-11-20T21:14:15;50.15;;;22.67;;
75586;SDS011;64164;50.156;14.570;2022-11-20T21:16:40;37.37;;;17.90;;
75586;SDS011;64164;50.156;14.570;2022-11-20T21:19:07;44.92;;;19.15;;
75586;SDS011;64164;50.156;14.570;2022-11-20T21:21:33;50.77;;;18.77;;
75586;SDS011;64164;50.156;14.570;2022-11-20T21:24:16;44.50;;;18.38;;
75586;SDS011;64164;50.156;14.570;2022-11-20T21:26:41;45.07;;;19.73;;
75586;SDS011;64164;50.156;14.570;2022-11-20T21:29:07;42.17;;;20.13;;
75586;SDS011;64164;50.156;14.570;2022-11-20T21:31:32;50.63;;;23.00;;
75586;SDS011;64164;50.156;14.570;2022-11-20T21:33:57;54.13;;;21.77;;
75586;SDS011;64164;50.156;14.570;2022-11-20T21:36:23;47.95;;;21.25;;
75586;SDS011;64164;50.156;14.570;2022-11-20T21:38:50;61.55;;;25.95;;
75586;SDS011;64164;50.156;14.570;2022-11-20T21:41:15;56.97;;;24.73;;
75586;SDS011;64164;50.156;14.570;2022-11-20T21:43:41;56.70;;;23.27;;
75586;SDS011;64164;50.156;14.570;2022-11-20T21:46:10;52.08;;;22.35;;
75586;SDS011;64164;50.156;14.570;2022-11-20T21:48:36;53.58;;;23.55;;
75586;SDS011;64164;50.156;14.570;2022-11-20T21:51:02;54.03;;;20.42;;
75586;SDS011;64164;50.156;14.570;2022-11-20T21:53:27;46.08;;;20.45;;
75586;SDS011;64164;50.156;14.570;2022-11-20T21:55:56;44.57;;;18.57;;
75586;SDS011;64164;50.156;14.570;2022-11-20T21:58:21;36.30;;;17.65;;
75586;SDS011;64164;50.156;14.570;2022-11-20T22:00:47;42.08;;;19.25;;
75586;SDS011;64164;50.156;14.570;2022-11-20T22:03:12;48.83;;;21.37;;
75586;SDS011;64164;50.156;14.570;2022-11-20T22:05:37;50.10;;;21.00;;
75586;SDS011;64164;50.156;14.570;2022-11-20T22:08:02;40.50;;;19.40;;
75586;SDS011;64164;50.156;14.570;2022-11-20T22:10:28;44.77;;;21.67;;
75586;SDS011;64164;50.156;14.570;2022-11-20T22:12:53;42.30;;;20.03;;
75586;SDS011;64164;50.156;14.570;2022-11-20T22:15:41;35.33;;;18.92;;
75586;SDS011;64164;50.156;14.570;2022-11-20T22:18:06;41.43;;;18.07;;
75586;SDS011;64164;50.156;14.570;2022-11-20T22:20:37;42.05;;;19.33;;
75586;SDS011;64164;50.156;14.570;2022-11-20T22:23:03;36.10;;;18.50;;
